Time;durP1;ratioP1;P1;durP2;ratioP2;P2;SDS_P1;SDS_P2;PMS_P1;PMS_P2;Temp;Humidity;BMP_temperature;BMP_pressure;BME280_temperature;BME280_humidity;BME280_pressure;Samples;Min_cycle;Max_cycle;Signal;HPM_P1;HPM_P2
2023/03/15 00:00:12;;;;;;;5.93;2.30;;;;;;;7.49;58.17;99300.66;5000113;28;97165;-93
2023/03/15 00:02:38;;;;;;;5.10;2.10;;;;;;;7.48;57.87;99305.94;5008159;27;96735;-92
2023/03/15 00:05:04;;;;;;;6.35;2.83;;;;;;;7.45;57.80;99317.34;5010373;28;100148;-91
2023/03/15 00:07:31;;;;;;;6.47;2.10;;;;;;;7.39;57.78;99311.50;5014379;27;101095;-92
2023/03/15 00:09:57;;;;;;;6.95;2.58;;;;;;;7.40;58.03;99334.94;5017298;27;97007;-92
2023/03/15 00:12:22;;;;;;;9.73;2.75;;;;;;;7.45;58.04;99329.56;5002304;27;96963;-91
2023/03/15 00:14:49;;;;;;;9.23;2.72;;;;;;;7.02;58.04;99264.09;5019070;27;98326;-92
2023/03/15 00:17:14;;;;;;;8.02;3.13;;;;;;;6.94;58.08;99263.50;4996786;28;101079;-92
2023/03/15 00:19:40;;;;;;;10.30;2.65;;;;;;;7.18;58.32;99321.78;5017434;27;97203;-92
2023/03/15 00:22:06;;;;;;;6.28;2.35;;;;;;;7.27;58.07;99336.28;4983152;28;97349;-91
2023/03/15 00:24:32;;;;;;;8.70;2.47;;;;;;;7.24;58.18;99342.50;4994126;28;99700;-91
2023/03/15 00:26:57;;;;;;;5.53;2.45;;;;;;;7.18;58.04;99334.00;4999295;28;98785;-91
2023/03/15 00:29:23;;;;;;;9.97;2.67;;;;;;;7.00;58.31;99322.47;5013044;27;96838;-91
2023/03/15 00:31:50;;;;;;;12.43;2.55;;;;;;;7.00;58.51;99327.69;4994219;27;97182;-91
2023/03/15 00:34:17;;;;;;;9.27;2.60;;;;;;;7.17;58.28;99356.66;4999869;27;101225;-92
2023/03/15 00:36:44;;;;;;;5.35;2.08;;;;;;;7.10;58.23;99347.34;5014206;27;100124;-92
2023/03/15 00:39:10;;;;;;;12.13;2.63;;;;;;;7.03;58.23;99361.50;5005700;28;96816;-93
2023/03/15 00:41:36;;;;;;;7.75;3.10;;;;;;;6.90;58.46;99355.84;5001020;28;97431;-92
2023/03/15 00:44:03;;;;;;;5.85;2.53;;;;;;;6.91;58.50;99357.56;5046654;27;100045;-92
2023/03/15 00:46:29;;;;;;;8.15;3.05;;;;;;;6.81;58.44;99364.00;5034196;27;101065;-92
2023/03/15 00:48:56;;;;;;;8.88;2.55;;;;;;;6.53;58.58;99311.91;5031235;27;97331;-92
2023/03/15 00:51:23;;;;;;;6.25;2.65;;;;;;;6.97;58.35;99388.66;4996543;28;96928;-92
2023/03/15 00:53:50;;;;;;;7.00;2.60;;;;;;;6.73;58.20;99337.31;4994737;27;101302;-92
2023/03/15 00:56:19;;;;;;;11.93;2.65;;;;;;;6.82;58.49;99360.47;4998204;28;100470;-91
2023/03/15 00:58:45;;;;;;;7.60;2.78;;;;;;;6.95;58.40;99390.47;5020979;27;96985;-92
2023/03/15 01:01:16;;;;;;;8.32;3.15;;;;;;;6.60;58.26;99346.44;4995511;28;96827;-93
2023/03/15 01:03:42;;;;;;;10.73;2.42;;;;;;;6.86;58.04;99393.38;5010835;27;97503;-93
2023/03/15 01:06:11;;;;;;;8.90;2.67;;;;;;;6.80;58.41;99397.03;5000170;28;100237;-92
2023/03/15 01:08:42;;;;;;;10.55;2.33;;;;;;;6.39;58.44;99327.16;5039455;27;97059;-91
2023/03/15 01:11:11;;;;;;;7.03;1.92;;;;;;;6.82;58.11;99383.97;5013643;27;97177;-91
2023/03/15 01:13:37;;;;;;;5.50;1.77;;;;;;;6.34;58.28;99309.91;5000442;27;101414;-92
2023/03/15 01:16:04;;;;;;;7.17;2.30;;;;;;;6.67;58.39;99367.06;5006799;28;99942;-93
2023/03/15 01:18:30;;;;;;;8.73;2.25;;;;;;;6.59;58.09;99348.19;4996869;28;97278;-90
2023/03/15 01:20:56;;;;;;;7.68;2.20;;;;;;;6.72;57.85;99372.09;4985535;28;96860;-92
2023/03/15 01:23:22;;;;;;;12.25;3.00;;;;;;;6.75;57.98;99380.72;5017410;28;99920;-91
2023/03/15 01:25:48;;;;;;;7.83;2.60;;;;;;;6.33;57.83;99326.44;5022809;28;101381;-92
2023/03/15 01:28:13;;;;;;;12.40;2.72;;;;;;;6.87;57.65;99409.91;5034204;28;96943;-92
2023/03/15 01:30:40;;;;;;;11.23;2.50;;;;;;;6.33;57.37;99328.19;5009594;28;96712;-91
2023/03/15 01:33:05;;;;;;;8.77;2.35;;;;;;;6.64;57.17;99384.56;5015267;27;100648;-92
2023/03/15 01:35:31;;;;;;;10.75;2.60;;;;;;;6.66;57.38;99393.19;4991627;28;101410;-92
2023/03/15 01:37:57;;;;;;;6.87;2.10;;;;;;;6.75;57.06;99411.16;5015114;28;97133;-92
2023/03/15 01:40:23;;;;;;;9.93;2.60;;;;;;;6.51;57.20;99374.53;5006345;28;96846;-92
2023/03/15 01:43:11;;;;;;;11.93;2.10;;;;;;;6.76;56.71;99418.91;5022565;27;100945;-92
2023/03/15 01:45:58;;;;;;;7.53;1.90;;;;;;;6.72;56.85;99434.72;5022735;28;100437;-92
2023/03/15 01:48:33;;;;;;;5.53;1.73;;;;;;;6.71;56.62;99436.47;5033283;28;97158;-92
2023/03/15 01:51:03;;;;;;;9.93;2.00;;;;;;;6.60;56.94;99424.69;5022723;27;97038;-91
2023/03/15 01:53:29;;;;;;;7.77;2.20;;;;;;;6.64;56.52;99434.13;5009699;28;100236;-92
2023/03/15 01:55:56;;;;;;;10.73;2.08;;;;;;;6.67;56.74;99457.50;4995242;28;101262;-92
2023/03/15 01:58:29;;;;;;;10.17;2.10;;;;;;;6.64;56.71;99465.41;5005456;27;97141;-92
2023/03/15 02:00:55;;;;;;;10.60;2.10;;;;;;;6.50;56.59;99448.44;5032666;27;97293;-92
2023/03/15 02:03:27;;;;;;;6.47;2.00;;;;;;;6.57;56.92;99473.44;4996855;27;100021;-92
2023/03/15 02:05:56;;;;;;;9.43;2.03;;;;;;;6.32;56.47;99433.38;5012065;27;99967;-91
2023/03/15 02:08:46;;;;;;;;;;;;;;;6.53;56.67;99486.59;5014746;27;96815;-93
2023/03/15 02:11:12;;;;;;;7.97;1.70;;;;;;;6.38;56.45;99463.63;5027940;27;96893;-93
2023/03/15 02:13:40;;;;;;;7.40;1.83;;;;;;;6.54;56.59;99493.53;5029887;27;99772;-92
2023/03/15 02:16:08;;;;;;;3.47;1.60;;;;;;;6.52;56.50;99509.22;5029891;28;99758;-93
2023/03/15 02:18:41;;;;;;;9.47;1.97;;;;;;;6.26;56.34;99473.50;5006491;28;96842;-93
2023/03/15 02:21:28;;;;;;;8.77;2.10;;;;;;;6.33;56.91;99484.59;5002417;28;96804;-92
2023/03/15 02:24:15;;;;;;;7.18;1.65;;;;;;;6.20;56.93;99468.50;4985820;28;100462;-92
2023/03/15 02:26:42;;;;;;;5.60;1.67;;;;;;;6.38;57.05;99500.13;5038186;27;97480;-93
2023/03/15 02:29:07;;;;;;;6.77;1.57;;;;;;;6.41;57.00;99508.69;5012007;28;97185;-93
2023/03/15 02:31:36;;;;;;;10.10;2.20;;;;;;;6.20;56.87;99484.13;5028193;27;97369;-93
2023/03/15 02:34:05;;;;;;;10.67;2.23;;;;;;;6.37;56.80;99540.09;5018908;27;97442;-93
2023/03/15 02:36:32;;;;;;;6.60;2.03;;;;;;;6.37;57.36;99548.81;5017684;28;98335;-92
2023/03/15 02:38:58;;;;;;;8.23;2.50;;;;;;;6.12;57.09;99504.34;5014846;27;96774;-92
2023/03/15 02:41:28;;;;;;;8.30;2.00;;;;;;;6.41;56.61;99549.56;4999331;28;97284;-93
2023/03/15 02:44:07;;;;;;;10.53;2.73;;;;;;;6.16;57.25;99518.97;5000117;28;100663;-92
2023/03/15 02:46:33;;;;;;;10.00;2.40;;;;;;;6.35;57.01;99551.44;4996923;28;101493;-93
2023/03/15 02:48:59;;;;;;;8.83;2.63;;;;;;;6.33;57.60;99557.59;4999130;27;97298;-92
2023/03/15 02:51:27;;;;;;;7.57;2.00;;;;;;;6.19;57.49;99550.16;5002854;28;96757;-93
2023/03/15 02:53:55;;;;;;;11.37;2.73;;;;;;;6.30;57.39;99575.91;5000644;28;101026;-92
2023/03/15 02:56:21;;;;;;;10.87;2.20;;;;;;;6.15;57.23;99555.50;5008089;27;100302;-92
2023/03/15 02:58:47;;;;;;;9.43;2.40;;;;;;;6.23;56.97;99580.47;5002335;27;97328;-92
2023/03/15 03:01:14;;;;;;;8.63;2.23;;;;;;;5.97;56.79;99528.22;5016385;27;97557;-92
2023/03/15 03:03:41;;;;;;;8.50;2.20;;;;;;;6.15;57.05;99563.34;5001242;28;100955;-93
2023/03/15 03:06:07;;;;;;;7.33;2.13;;;;;;;6.05;56.90;99560.09;5000326;28;97983;-92
2023/03/15 03:08:35;;;;;;;8.30;2.30;;;;;;;6.09;56.73;99559.16;4988941;28;97244;-93
2023/03/15 03:11:02;;;;;;;8.97;2.50;;;;;;;5.68;56.77;99493.38;4986839;28;97218;-94
2023/03/15 03:13:28;;;;;;;10.77;2.90;;;;;;;6.04;57.13;99554.03;4999396;27;101345;-93
2023/03/15 03:15:57;;;;;;;7.85;2.60;;;;;;;5.92;56.88;99543.09;5001879;28;100651;-93
2023/03/15 03:18:26;;;;;;;10.83;2.83;;;;;;;6.16;56.98;99589.34;5006566;28;97160;-93
2023/03/15 03:20:54;;;;;;;8.10;2.40;;;;;;;5.93;56.59;99557.81;4984017;28;97061;-92
2023/03/15 03:23:20;;;;;;;10.90;2.67;;;;;;;5.87;56.75;99551.00;5010403;27;100362;-92
2023/03/15 03:25:46;;;;;;;6.67;1.83;;;;;;;6.07;57.06;99600.88;5022847;28;101481;-92
2023/03/15 03:28:11;;;;;;;10.03;3.13;;;;;;;6.08;56.85;99596.53;4994831;28;96698;-93
2023/03/15 03:30:37;;;;;;;7.45;2.05;;;;;;;5.83;56.69;99552.84;4999478;28;97715;-92
2023/03/15 03:33:03;;;;;;;7.63;1.73;;;;;;;5.85;56.75;99564.09;5014948;28;101003;-92
2023/03/15 03:35:30;;;;;;;7.43;1.90;;;;;;;6.01;56.70;99606.25;5016430;27;100810;-93
2023/03/15 03:37:56;;;;;;;9.53;2.10;;;;;;;5.59;56.96;99540.50;5023210;27;97105;-92
2023/03/15 03:40:28;;;;;;;7.75;2.28;;;;;;;5.67;56.96;99574.97;5020226;27;97152;-93
2023/03/15 03:42:54;;;;;;;9.47;2.60;;;;;;;5.74;57.22;99589.56;5016886;28;100387;-93
2023/03/15 03:45:19;;;;;;;8.00;1.90;;;;;;;5.93;57.19;99620.34;5000729;28;101502;-93
2023/03/15 03:47:50;;;;;;;14.20;2.70;;;;;;;5.81;57.18;99617.16;5016824;28;97285;-93
2023/03/15 03:50:16;;;;;;;9.20;2.33;;;;;;;5.87;57.09;99624.78;4991436;28;96869;-92
2023/03/15 03:52:42;;;;;;;7.63;2.13;;;;;;;5.60;57.40;99592.50;5005155;28;100128;-92
2023/03/15 03:55:12;;;;;;;9.23;2.27;;;;;;;5.73;57.75;99619.13;5003597;27;101348;-92
2023/03/15 03:57:40;;;;;;;9.37;2.07;;;;;;;5.53;57.24;99580.56;5023840;28;96696;-93
2023/03/15 04:00:15;;;;;;;10.47;2.53;;;;;;;5.60;57.23;99592.50;4991951;27;97250;-93
2023/03/15 04:02:41;;;;;;;9.20;2.00;;;;;;;5.66;57.51;99613.19;5029649;27;100382;-92
2023/03/15 04:05:10;;;;;;;6.20;1.77;;;;;;;5.60;57.35;99613.34;5002825;27;99998;-92
2023/03/15 04:07:36;;;;;;;9.90;2.43;;;;;;;5.50;57.24;99593.66;4993666;28;97048;-93
2023/03/15 04:10:03;;;;;;;7.60;1.80;;;;;;;5.72;57.59;99633.00;5001754;27;97331;-93
2023/03/15 04:12:29;;;;;;;9.97;2.73;;;;;;;5.26;57.20;99557.78;5010499;28;101271;-93
2023/03/15 04:14:55;;;;;;;9.20;2.00;;;;;;;5.32;57.34;99579.31;4999931;28;100062;-92
2023/03/15 04:17:24;;;;;;;10.73;2.33;;;;;;;5.65;57.23;99642.72;5001698;28;96780;-92
2023/03/15 04:19:49;;;;;;;9.07;2.00;;;;;;;5.23;57.39;99574.34;5020076;27;97251;-93
2023/03/15 04:22:22;;;;;;;8.20;2.40;;;;;;;5.64;57.56;99654.06;5004350;28;100382;-92
2023/03/15 04:24:56;;;;;;;10.30;2.13;;;;;;;5.65;57.74;99658.34;5004522;28;96964;-92
2023/03/15 04:27:40;;;;;;;6.93;2.50;;;;;;;5.64;57.58;99674.00;5021222;27;96696;-91
2023/03/15 04:30:32;;;;;;;10.18;2.20;;;;;;;5.65;57.33;99680.94;5014720;27;97142;-92
2023/03/15 04:33:23;;;;;;;8.23;1.90;;;;;;;5.64;57.46;99680.09;5023527;27;101219;-93
2023/03/15 04:36:07;;;;;;;14.30;2.80;;;;;;;5.63;57.64;99693.97;5034042;27;97045;-93
2023/03/15 04:39:04;;;;;;;5.73;2.13;;;;;;;5.55;57.38;99680.28;5022536;27;96998;-92
2023/03/15 04:41:45;;;;;;;9.93;2.47;;;;;;;5.62;57.67;99705.31;4988092;28;97552;-92
2023/03/15 04:44:39;;;;;;;12.80;2.40;;;;;;;5.57;57.77;99701.09;4974285;27;98543;-94
2023/03/15 04:47:16;;;;;;;14.00;3.83;;;;;;;5.42;57.86;99694.50;5000408;27;101411;-91
2023/03/15 04:49:53;;;;;;;7.23;2.27;;;;;;;5.59;58.09;99702.78;5009607;28;97511;-92
2023/03/15 04:52:25;;;;;;;;;;;;;;;5.56;57.55;99700.25;5002516;27;96720;-92
2023/03/15 04:55:21;;;;;;;5.57;1.90;;;;;;;5.51;57.92;99706.44;5002452;27;101189;-92
2023/03/15 04:58:05;;;;;;;8.53;2.00;;;;;;;5.50;57.58;99707.31;5034586;27;98117;-92
2023/03/15 05:00:53;;;;;;;9.83;2.20;;;;;;;5.53;57.50;99713.34;4992127;28;97037;-91
2023/03/15 05:03:26;;;;;;;9.93;2.20;;;;;;;5.50;57.59;99709.91;5002669;27;97158;-92
2023/03/15 05:06:06;;;;;;;12.17;2.70;;;;;;;5.48;57.41;99722.13;5019942;27;101534;-92
2023/03/15 05:08:44;;;;;;;9.40;2.60;;;;;;;5.47;57.38;99723.91;5038662;27;98122;-92
2023/03/15 05:11:24;;;;;;;11.37;2.57;;;;;;;5.45;57.70;99723.91;5029085;27;96895;-91
2023/03/15 05:14:23;;;;;;;10.70;2.63;;;;;;;5.38;57.94;99709.34;4998746;28;96836;-92
2023/03/15 05:17:07;;;;;;;9.30;2.73;;;;;;;5.44;57.76;99718.75;5019526;27;97281;-92
2023/03/15 05:19:41;;;;;;;14.33;2.57;;;;;;;5.44;57.39;99726.56;5013347;27;97834;-92
2023/03/15 05:22:27;;;;;;;11.97;2.80;;;;;;;5.41;57.73;99724.88;5020926;27;96814;-92
2023/03/15 05:25:14;;;;;;;13.07;2.70;;;;;;;5.34;58.00;99727.66;5014376;27;96111;-93
2023/03/15 05:27:58;;;;;;;9.93;2.53;;;;;;;5.33;57.64;99724.19;5044233;27;96127;-91
2023/03/15 05:30:32;;;;;;;9.60;2.70;;;;;;;5.38;57.37;99744.91;5014452;27;99652;-93
2023/03/15 05:33:30;;;;;;;15.87;3.93;;;;;;;5.38;57.72;99761.41;4973408;28;96889;-93
2023/03/15 05:36:30;;;;;;;10.20;2.87;;;;;;;5.34;57.62;99761.47;5004619;27;97168;-92
2023/03/15 05:39:15;;;;;;;8.27;2.10;;;;;;;5.39;57.46;99762.25;5030530;27;97872;-92
2023/03/15 05:42:01;;;;;;;10.63;2.67;;;;;;;5.43;57.39;99772.53;4995193;28;97184;-92
2023/03/15 05:44:46;;;;;;;8.80;2.40;;;;;;;5.37;57.20;99777.03;5027959;28;97932;-93
2023/03/15 05:47:30;;;;;;;5.43;2.20;;;;;;;5.40;57.24;99777.81;5014682;28;97041;-92
2023/03/15 05:50:08;;;;;;;6.07;2.17;;;;;;;5.41;57.35;99787.34;4997675;28;97915;-92
2023/03/15 05:53:06;;;;;;;6.80;2.60;;;;;;;5.45;57.50;99803.75;5005919;27;96848;-92
2023/03/15 05:55:52;;;;;;;13.93;3.87;;;;;;;5.49;56.95;99801.94;5017217;27;97145;-92
2023/03/15 05:58:36;;;;;;;7.13;2.27;;;;;;;5.50;56.88;99811.47;5012161;28;96677;-92
2023/03/15 06:01:19;;;;;;;12.87;3.17;;;;;;;5.50;56.66;99806.25;5029003;28;98598;-93
2023/03/15 06:04:20;;;;;;;13.40;3.67;;;;;;;5.59;56.44;99813.88;5012139;28;99322;-93
2023/03/15 06:06:46;;;;;;;11.00;2.33;;;;;;;5.54;56.91;99819.19;5019098;27;97236;-93
2023/03/15 06:09:12;;;;;;;10.33;2.43;;;;;;;5.53;56.82;99814.03;4983920;28;97273;-91
2023/03/15 06:11:38;;;;;;;8.87;2.03;;;;;;;5.62;57.19;99830.28;5021238;27;97688;-94
2023/03/15 06:14:04;;;;;;;9.10;2.20;;;;;;;5.67;56.69;99838.00;5001619;28;100386;-94
2023/03/15 06:16:39;;;;;;;10.90;2.60;;;;;;;5.68;56.76;99835.38;5019888;27;97892;-94
2023/03/15 06:19:06;;;;;;;6.20;2.27;;;;;;;5.61;56.65;99819.91;5007987;28;97323;-94
2023/03/15 06:21:32;;;;;;;11.60;2.53;;;;;;;5.79;56.96;99839.47;5005088;27;100244;-93
2023/03/15 06:23:59;;;;;;;11.57;2.47;;;;;;;5.55;56.20;99796.59;4998809;28;100442;-94
2023/03/15 06:26:25;;;;;;;14.57;2.77;;;;;;;5.75;56.27;99825.66;5005133;27;96753;-94
2023/03/15 06:28:56;;;;;;;12.50;2.63;;;;;;;5.93;56.73;99865.22;4995740;28;97088;-93
2023/03/15 06:31:22;;;;;;;8.80;2.00;;;;;;;5.84;56.14;99838.47;4989860;27;101737;-94
2023/03/15 06:33:54;;;;;;;;;;;;;;;5.99;55.85;99862.50;5011543;27;100082;-94
2023/03/15 06:36:19;;;;;;;6.77;2.17;;;;;;;5.97;56.19;99846.06;5012832;28;97282;-93
2023/03/15 06:38:45;;;;;;;9.83;2.20;;;;;;;6.21;55.94;99858.53;5010017;27;96899;-93
2023/03/15 06:41:11;;;;;;;8.20;2.23;;;;;;;5.94;55.73;99814.88;5019047;28;98143;-94
2023/03/15 06:43:38;;;;;;;9.63;2.63;;;;;;;6.25;55.89;99843.66;4999293;28;97544;-94
2023/03/15 06:46:08;;;;;;;10.45;2.33;;;;;;;6.06;55.05;99799.81;5022030;27;96754;-94
2023/03/15 06:48:34;;;;;;;11.13;3.37;;;;;;;6.25;55.12;99804.56;5029644;28;97277;-94
2023/03/15 06:51:00;;;;;;;7.63;2.43;;;;;;;6.39;54.36;99814.66;5013117;27;101483;-94
2023/03/15 06:53:25;;;;;;;9.77;2.40;;;;;;;6.96;54.29;99880.13;4994797;28;100687;-94
2023/03/15 06:55:51;;;;;;;8.98;2.40;;;;;;;6.97;53.49;99867.94;4999669;27;97296;-91
2023/03/15 06:58:17;;;;;;;10.73;2.20;;;;;;;7.21;53.95;99880.34;5000689;28;96824;-93
2023/03/15 07:00:43;;;;;;;9.52;2.20;;;;;;;7.29;53.00;99887.94;5016541;28;99893;-90
2023/03/15 07:03:09;;;;;;;7.90;2.23;;;;;;;6.93;52.55;99828.03;5005755;28;100761;-93
2023/03/15 07:05:36;;;;;;;7.33;1.80;;;;;;;7.33;52.14;99880.88;5023484;28;97195;-91
2023/03/15 07:08:01;;;;;;;11.93;2.33;;;;;;;7.43;52.71;99887.56;5005402;28;96874;-91
2023/03/15 07:10:27;;;;;;;6.18;2.00;;;;;;;7.60;52.17;99903.63;5028602;27;101166;-91
2023/03/15 07:12:52;;;;;;;10.65;2.58;;;;;;;7.57;52.15;99867.16;5020167;28;100097;-93
2023/03/15 07:15:18;;;;;;;7.38;2.17;;;;;;;7.51;51.48;99817.69;5030480;27;97117;-89
2023/03/15 07:17:44;;;;;;;10.18;2.33;;;;;;;8.00;51.42;99884.19;5012089;28;97436;-91
2023/03/15 07:20:10;;;;;;;9.35;2.78;;;;;;;8.27;50.87;99881.59;4995373;28;100195;-91
2023/03/15 07:22:36;;;;;;;8.27;2.15;;;;;;;8.03;50.28;99830.91;4999172;28;101195;-92
2023/03/15 07:25:01;;;;;;;11.40;2.70;;;;;;;8.59;49.78;99888.44;5004769;27;97383;-90
2023/03/15 07:27:28;;;;;;;8.25;2.10;;;;;;;8.50;49.52;99839.06;4996884;28;97171;-90
2023/03/15 07:29:54;;;;;;;11.98;2.70;;;;;;;9.07;48.83;99912.13;5029094;27;100128;-92
2023/03/15 07:32:20;;;;;;;11.15;2.55;;;;;;;8.88;48.40;99871.78;5011290;27;101326;-94
2023/03/15 07:34:45;;;;;;;12.73;2.13;;;;;;;9.27;48.02;99924.50;5008156;27;97141;-87
2023/03/15 07:37:11;;;;;;;11.85;2.25;;;;;;;9.46;47.57;99927.34;5023059;28;97207;-85
2023/03/15 07:39:36;;;;;;;9.43;2.78;;;;;;;9.56;47.84;99940.97;5016272;27;100855;-92
2023/03/15 07:42:03;;;;;;;10.13;2.50;;;;;;;9.61;46.80;99933.81;5002443;27;99875;-87
2023/03/15 07:44:37;;;;;;;11.90;2.45;;;;;;;9.79;46.63;99913.06;5000427;28;97242;-87
2023/03/15 07:47:03;;;;;;;9.85;2.47;;;;;;;10.06;46.21;99943.50;5009086;28;97113;-92
2023/03/15 07:49:29;;;;;;;5.22;2.00;;;;;;;9.79;45.95;99887.72;4996270;28;100407;-89
2023/03/15 07:51:55;;;;;;;11.35;2.72;;;;;;;10.14;45.92;99948.47;5018028;28;97418;-87
2023/03/15 07:54:20;;;;;;;9.15;2.83;;;;;;;9.66;45.96;99886.47;4996861;28;97119;-84
2023/03/15 07:56:46;;;;;;;9.95;2.45;;;;;;;10.17;45.71;99957.06;5026023;28;97132;-86
2023/03/15 07:59:12;;;;;;;9.45;2.25;;;;;;;9.98;46.08;99901.84;5000611;28;101273;-87
2023/03/15 08:01:37;;;;;;;9.00;2.50;;;;;;;10.14;45.65;99957.16;5006013;28;100963;-89
2023/03/15 08:04:03;;;;;;;6.57;2.25;;;;;;;10.27;45.69;99948.84;4981542;28;96844;-85
2023/03/15 08:06:30;;;;;;;9.68;2.08;;;;;;;10.06;45.32;99955.75;4976929;28;96852;-83
2023/03/15 08:08:56;;;;;;;9.30;2.60;;;;;;;10.01;44.78;99955.94;4990255;28;97783;-82
2023/03/15 08:11:21;;;;;;;13.57;2.75;;;;;;;10.07;44.77;99962.72;4990811;28;101744;-82
2023/03/15 08:13:47;;;;;;;11.68;2.15;;;;;;;10.07;44.69;99968.81;5001749;28;97420;-82
2023/03/15 08:16:12;;;;;;;11.52;3.22;;;;;;;9.83;45.24;99969.72;4974496;28;97221;-81
2023/03/15 08:18:38;;;;;;;11.55;2.58;;;;;;;9.94;45.05;99972.78;5005588;28;101077;-82
2023/03/15 08:21:04;;;;;;;9.55;2.58;;;;;;;9.87;44.46;99971.31;4991659;28;100022;-82
2023/03/15 08:23:30;;;;;;;5.00;2.25;;;;;;;9.72;44.73;99962.25;4973066;28;97118;-81
2023/03/15 08:25:55;;;;;;;5.80;2.30;;;;;;;9.92;44.98;99957.13;4991448;28;97487;-83
2023/03/15 08:28:21;;;;;;;5.32;2.03;;;;;;;9.86;44.96;99953.88;5003186;28;97849;-82
2023/03/15 08:30:46;;;;;;;8.73;2.78;;;;;;;9.95;45.00;99959.66;4990493;28;97524;-82
2023/03/15 08:33:12;;;;;;;6.78;2.42;;;;;;;9.85;44.38;99981.00;4980306;28;97406;-82
2023/03/15 08:35:38;;;;;;;8.50;2.38;;;;;;;9.79;44.62;99974.22;4989510;28;97814;-83
2023/03/15 08:38:03;;;;;;;10.73;2.35;;;;;;;10.07;44.44;99987.19;4971083;28;98767;-82
2023/03/15 08:40:29;;;;;;;8.55;3.05;;;;;;;10.19;44.76;99984.09;4973671;28;101756;-83
2023/03/15 08:42:55;;;;;;;8.15;2.10;;;;;;;10.18;44.12;99984.13;4991763;28;97115;-84
2023/03/15 08:45:23;;;;;;;12.55;3.30;;;;;;;10.17;43.76;99985.06;4982542;28;97125;-82
2023/03/15 08:47:52;;;;;;;6.95;2.28;;;;;;;10.19;44.00;99980.63;4984253;28;98527;-84
2023/03/15 08:50:18;;;;;;;6.32;2.00;;;;;;;10.17;44.19;99995.53;4996289;28;101433;-83
2023/03/15 08:52:44;;;;;;;8.30;2.70;;;;;;;10.04;44.28;99992.53;5005228;28;96813;-83
2023/03/15 08:55:13;;;;;;;12.93;2.67;;;;;;;9.87;43.94;99966.09;4982947;28;97779;-83
2023/03/15 08:57:39;;;;;;;10.45;2.90;;;;;;;10.10;44.02;100007.19;4992515;28;100371;-86
2023/03/15 09:00:09;;;;;;;10.13;2.40;;;;;;;10.31;44.87;100002.94;4991100;28;98584;-82
2023/03/15 09:02:37;;;;;;;9.55;2.63;;;;;;;10.36;43.52;100011.50;4993979;28;97336;-80
2023/03/15 09:05:05;;;;;;;9.27;2.35;;;;;;;10.34;43.76;100008.91;4993952;28;96878;-82
2023/03/15 09:07:32;;;;;;;6.97;2.15;;;;;;;10.48;43.13;100011.03;4988409;28;101816;-83
2023/03/15 09:09:57;;;;;;;11.70;2.80;;;;;;;10.52;43.13;100017.84;5024732;28;97945;-84
2023/03/15 09:12:23;;;;;;;8.80;2.20;;;;;;;10.60;43.07;100026.28;5013915;28;96820;-84
2023/03/15 09:14:48;;;;;;;11.60;3.30;;;;;;;10.63;43.07;100026.16;4994745;28;97357;-84
2023/03/15 09:17:14;;;;;;;6.05;2.00;;;;;;;10.61;42.82;100011.38;5011024;28;101468;-85
2023/03/15 09:19:40;;;;;;;10.98;2.90;;;;;;;10.72;42.86;100018.84;4993375;28;102237;-85
2023/03/15 09:22:06;;;;;;;7.68;2.08;;;;;;;10.83;42.91;100017.50;5008806;28;96843;-86
2023/03/15 09:24:31;;;;;;;11.32;3.20;;;;;;;10.76;43.05;100018.69;5018979;28;98164;-90
2023/03/15 09:26:57;;;;;;;8.50;2.08;;;;;;;10.61;42.93;100035.88;4988794;28;101266;-91
2023/03/15 09:29:23;;;;;;;11.10;3.72;;;;;;;10.69;42.92;100024.22;5014320;28;97940;-92
2023/03/15 09:31:48;;;;;;;6.05;2.33;;;;;;;10.69;43.38;100018.97;5013737;28;96817;-92
2023/03/15 09:34:14;;;;;;;12.52;2.72;;;;;;;10.67;42.85;100000.66;4982076;27;97103;-89
2023/03/15 09:36:39;;;;;;;20.25;3.55;;;;;;;10.93;43.33;100007.47;5014289;27;100472;-90
2023/03/15 09:39:05;;;;;;;6.47;2.15;;;;;;;11.12;42.74;100018.13;4999874;28;101754;-89
2023/03/15 09:41:44;;;;;;;7.00;2.40;;;;;;;11.12;41.93;100028.63;4988691;28;97097;-89
2023/03/15 09:44:16;;;;;;;10.15;2.67;;;;;;;11.08;41.47;100022.66;5000015;28;97191;-89
2023/03/15 09:46:47;;;;;;;9.32;2.03;;;;;;;10.99;41.51;100038.75;5028359;28;101227;-96
2023/03/15 09:49:31;;;;;;;12.00;2.05;;;;;;;11.03;41.58;100044.75;5017504;28;97108;-89
2023/03/15 09:52:30;;;;;;;13.40;2.53;;;;;;;11.07;41.41;100048.97;5040169;27;96775;-89
2023/03/15 09:55:04;;;;;;;9.20;2.72;;;;;;;11.07;41.44;100035.81;5028123;28;96881;-89
2023/03/15 09:58:05;;;;;;;12.10;2.90;;;;;;;11.14;41.35;100039.06;4999156;28;100641;-89
2023/03/15 10:00:46;;;;;;;11.90;3.03;;;;;;;11.42;41.39;100031.72;5007224;28;98569;-89
2023/03/15 10:03:20;;;;;;;7.80;2.70;;;;;;;11.35;41.37;100017.16;5021995;28;96807;-88
2023/03/15 10:05:48;;;;;;;11.77;3.97;;;;;;;11.60;41.42;100037.13;5027080;28;96740;-90
2023/03/15 10:08:18;;;;;;;8.88;2.30;;;;;;;11.51;39.95;100012.94;4997518;28;101711;-89
2023/03/15 10:11:01;;;;;;;11.25;2.97;;;;;;;11.47;40.36;100024.53;4981511;28;100253;-89
2023/03/15 10:13:27;;;;;;;13.20;2.35;;;;;;;11.33;40.77;99992.72;5016686;28;96953;-91
2023/03/15 10:16:24;;;;;;;12.55;2.92;;;;;;;11.83;40.12;100023.00;5004751;28;98302;-89
2023/03/15 10:19:01;;;;;;;7.40;2.30;;;;;;;12.05;39.83;100008.00;4978805;28;100393;-90
2023/03/15 10:21:40;;;;;;;5.65;2.03;;;;;;;12.43;38.81;100014.16;4993904;28;101451;-91
2023/03/15 10:24:15;;;;;;;15.57;2.55;;;;;;;12.28;38.93;100017.50;5001944;28;96703;-89
2023/03/15 10:26:43;;;;;;;10.20;2.63;;;;;;;12.23;39.21;99993.16;5005506;28;96838;-91
2023/03/15 10:29:15;;;;;;;8.98;1.90;;;;;;;12.23;38.68;99999.28;5002590;28;100984;-89
2023/03/15 10:31:43;;;;;;;9.55;2.58;;;;;;;12.11;38.74;99963.00;5000568;28;100219;-89
2023/03/15 10:34:12;;;;;;;9.20;1.88;;;;;;;12.27;38.71;99999.97;4980921;28;96801;-89
2023/03/15 10:36:44;;;;;;;8.23;1.80;;;;;;;12.18;38.41;99992.50;4983867;28;96683;-89
2023/03/15 10:39:10;;;;;;;;;;;;;;;12.02;37.90;100012.56;5000373;28;100671;-89
2023/03/15 10:41:37;;;;;;;6.35;1.77;;;;;;;11.97;39.19;100012.75;4983444;28;100762;-88
2023/03/15 10:44:08;;;;;;;7.90;2.10;;;;;;;12.01;38.17;100016.94;4982987;28;96838;-90
2023/03/15 10:46:35;;;;;;;6.10;2.28;;;;;;;11.70;38.85;99973.59;5010834;28;96792;-89
2023/03/15 10:49:19;;;;;;;8.32;1.92;;;;;;;11.81;38.40;99996.78;5017234;27;101375;-89
2023/03/15 10:51:46;;;;;;;8.73;2.20;;;;;;;11.80;38.61;100010.84;5002928;28;98067;-90
2023/03/15 10:54:19;;;;;;;8.25;1.92;;;;;;;11.70;38.44;100020.91;5016391;28;96882;-89
2023/03/15 10:56:48;;;;;;;9.02;2.45;;;;;;;11.63;38.78;100023.84;4999343;28;96900;-90
2023/03/15 10:59:23;;;;;;;5.03;1.92;;;;;;;11.42;38.51;99980.94;4977655;28;101468;-90
2023/03/15 11:01:51;;;;;;;6.32;1.88;;;;;;;11.68;38.48;100028.00;4990884;28;101711;-89
2023/03/15 11:04:23;;;;;;;9.55;2.10;;;;;;;11.51;38.63;99998.94;4998787;28;97256;-89
2023/03/15 11:06:58;;;;;;;8.02;2.15;;;;;;;11.65;39.09;100027.28;4982354;28;96895;-91
2023/03/15 11:09:25;;;;;;;10.65;2.53;;;;;;;11.48;39.09;100015.69;5000437;28;100445;-90
2023/03/15 11:11:51;;;;;;;7.03;1.98;;;;;;;11.42;38.99;100029.09;5000876;28;101105;-88
2023/03/15 11:14:17;;;;;;;5.00;1.77;;;;;;;11.30;39.31;100029.63;5000480;28;96795;-90
2023/03/15 11:16:46;;;;;;;7.88;2.10;;;;;;;11.01;39.66;99992.28;5003791;28;96762;-90
2023/03/15 11:19:15;;;;;;;7.20;2.17;;;;;;;10.84;38.95;99995.56;5001497;28;98503;-90
2023/03/15 11:21:41;;;;;;;5.90;1.80;;;;;;;10.93;38.02;100033.75;5001587;28;98428;-91
2023/03/15 11:24:19;;;;;;;12.43;2.17;;;;;;;10.83;37.49;100028.00;5006636;28;96970;-89
2023/03/15 11:26:50;;;;;;;7.65;2.00;;;;;;;10.83;38.33;100037.66;5015134;28;96797;-91
2023/03/15 11:29:22;;;;;;;6.20;2.85;;;;;;;10.75;38.21;100029.22;5014236;28;101768;-92
2023/03/15 11:31:48;;;;;;;7.82;2.13;;;;;;;10.83;38.83;100037.66;5007750;28;98338;-89
2023/03/15 11:34:23;;;;;;;5.35;2.08;;;;;;;10.84;38.73;100027.09;5004990;28;97068;-91
2023/03/15 11:36:54;;;;;;;14.00;2.63;;;;;;;10.92;39.24;100033.81;5032967;28;97369;-95
2023/03/15 11:39:31;;;;;;;9.68;1.90;;;;;;;10.80;39.42;100015.00;4998570;28;100810;-92
2023/03/15 11:42:02;;;;;;;8.25;1.90;;;;;;;10.95;39.08;100031.91;4980920;28;102051;-91
2023/03/15 11:44:46;;;;;;;7.53;1.95;;;;;;;10.78;38.90;100018.59;5015338;28;96816;-89
2023/03/15 11:47:11;;;;;;;4.57;1.52;;;;;;;10.88;39.45;100033.09;5007500;28;96986;-93
2023/03/15 11:49:54;;;;;;;14.05;1.85;;;;;;;10.76;39.29;100042.31;5032118;28;98421;-89